createdAt,value
2023-03-18T00:00:41.880Z,12.39
2023-03-18T00:03:12.175Z,12.37
2023-03-18T00:05:42.373Z,12.37
2023-03-18T00:08:12.537Z,12.34
2023-03-18T00:10:42.314Z,12.31
2023-03-18T00:13:14.863Z,12.29
2023-03-18T00:15:44.713Z,12.28
2023-03-18T00:18:19.987Z,12.26
2023-03-18T00:20:50.548Z,12.25
2023-03-18T00:23:21.311Z,12.23
2023-03-18T00:25:51.619Z,12.21
2023-03-18T00:28:24.171Z,12.20
2023-03-18T00:30:54.767Z,12.20
2023-03-18T00:33:26.912Z,12.18
2023-03-18T00:35:57.096Z,12.18
2023-03-18T00:38:26.847Z,12.16
2023-03-18T00:41:01.696Z,12.15
2023-03-18T00:43:46.024Z,12.15
2023-03-18T00:46:18.055Z,12.15
2023-03-18T00:48:48.712Z,12.13
2023-03-18T00:51:19.250Z,12.13
2023-03-18T00:53:51.981Z,12.15
2023-03-18T00:56:24.127Z,12.13
2023-03-18T00:59:03.108Z,12.13
2023-03-18T01:01:33.568Z,12.13
2023-03-18T01:04:04.558Z,12.12
2023-03-18T01:06:37.612Z,12.11
2023-03-18T01:09:11.358Z,12.06
2023-03-18T01:11:41.143Z,12.01
2023-03-18T01:14:13.522Z,11.98
2023-03-18T01:16:43.453Z,11.95
2023-03-18T01:19:13.762Z,11.95
2023-03-18T01:21:43.629Z,11.96
2023-03-18T01:24:13.465Z,11.92
2023-03-18T01:26:43.990Z,11.90
2023-03-18T01:29:16.520Z,11.85
2023-03-18T01:31:47.262Z,11.81
2023-03-18T01:34:17.613Z,11.80
2023-03-18T01:36:48.175Z,11.77
2023-03-18T01:39:18.383Z,11.74
2023-03-18T01:41:48.984Z,11.72
2023-03-18T01:44:24.867Z,11.69
2023-03-18T01:46:56.950Z,11.66
2023-03-18T01:49:29.288Z,11.63
2023-03-18T01:52:03.051Z,11.59
2023-03-18T01:54:37.901Z,11.56
2023-03-18T01:57:07.964Z,11.52
2023-03-18T01:59:44.592Z,11.47
2023-03-18T02:02:17.110Z,11.41
2023-03-18T02:04:50.513Z,11.38
2023-03-18T02:07:23.447Z,11.32
2023-03-18T02:09:54.831Z,11.27
2023-03-18T02:12:27.030Z,11.23
2023-03-18T02:15:00.896Z,11.20
2023-03-18T02:17:38.516Z,11.19
2023-03-18T02:20:18.858Z,11.15
2023-03-18T02:22:52.556Z,11.13
2023-03-18T02:25:34.806Z,11.10
2023-03-18T02:28:11.324Z,11.10
2023-03-18T02:30:45.244Z,11.05
2023-03-18T02:33:17.468Z,11.03
2023-03-18T02:35:49.283Z,11.04
2023-03-18T02:38:19.650Z,11.03
2023-03-18T02:40:49.398Z,11.03
2023-03-18T02:43:25.980Z,11.03
2023-03-18T02:46:28.907Z,11.01
2023-03-18T02:49:00.091Z,10.99
2023-03-18T02:51:31.142Z,10.95
2023-03-18T02:54:07.632Z,10.92
2023-03-18T02:56:38.010Z,10.89
2023-03-18T02:59:10.423Z,10.88
2023-03-18T03:01:41.865Z,10.87
2023-03-18T03:04:13.920Z,10.84
2023-03-18T03:06:44.731Z,10.82
2023-03-18T03:09:17.330Z,10.79
2023-03-18T03:11:48.878Z,10.75
2023-03-18T03:14:21.810Z,10.72
2023-03-18T03:16:52.059Z,10.67
2023-03-18T03:19:21.826Z,10.63
2023-03-18T03:21:54.462Z,10.61
2023-03-18T03:24:27.489Z,10.58
2023-03-18T03:27:02.942Z,10.56
2023-03-18T03:29:35.788Z,10.54
2023-03-18T03:32:05.890Z,10.50
2023-03-18T03:34:35.751Z,10.51
2023-03-18T03:37:05.967Z,10.51
2023-03-18T03:39:35.786Z,10.51
2023-03-18T03:42:05.572Z,10.50
2023-03-18T03:44:37.950Z,10.49
2023-03-18T03:47:08.591Z,10.47
2023-03-18T03:49:39.155Z,10.44
2023-03-18T03:52:09.401Z,10.42
2023-03-18T03:54:41.641Z,10.40
2023-03-18T03:57:11.961Z,10.39
2023-03-18T03:59:44.344Z,10.38
2023-03-18T04:02:14.524Z,10.37
2023-03-18T04:04:45.363Z,10.32
2023-03-18T04:07:15.513Z,10.31
2023-03-18T04:09:45.715Z,10.30
2023-03-18T04:12:18.384Z,10.28
2023-03-18T04:14:51.835Z,10.27
2023-03-18T04:17:21.699Z,10.24
2023-03-18T04:19:51.599Z,10.25
2023-03-18T04:22:21.664Z,10.24
2023-03-18T04:24:51.432Z,10.26
2023-03-18T04:27:22.726Z,10.27
2023-03-18T04:29:55.118Z,10.27
2023-03-18T04:32:24.913Z,10.25
2023-03-18T04:34:55.027Z,10.21
2023-03-18T04:37:24.786Z,10.17
2023-03-18T04:39:54.630Z,10.15
2023-03-18T04:42:24.407Z,10.14
2023-03-18T04:44:56.752Z,10.12
2023-03-18T04:47:26.535Z,10.09
2023-03-18T04:49:56.297Z,10.10
2023-03-18T04:52:26.048Z,10.08
2023-03-18T04:54:56.768Z,10.06
2023-03-18T04:57:26.767Z,10.03
2023-03-18T05:00:00.166Z,10.00
2023-03-18T05:02:30.126Z,9.99
2023-03-18T05:05:01.315Z,9.96
2023-03-18T05:07:32.017Z,9.94
2023-03-18T05:10:01.834Z,9.92
2023-03-18T05:12:31.645Z,9.88
2023-03-18T05:15:03.995Z,9.87
2023-03-18T05:17:33.757Z,9.86
2023-03-18T05:20:04.544Z,9.88
2023-03-18T05:22:34.409Z,9.90
2023-03-18T05:25:04.582Z,9.92
2023-03-18T05:27:34.447Z,9.91
2023-03-18T05:30:07.844Z,9.91
2023-03-18T05:32:38.139Z,9.92
2023-03-18T05:35:09.325Z,9.96
2023-03-18T05:37:39.745Z,9.99
2023-03-18T05:40:15.201Z,10.01
2023-03-18T05:42:55.765Z,10.03
2023-03-18T05:45:29.149Z,10.04
2023-03-18T05:47:58.923Z,10.06
2023-03-18T05:50:33.314Z,10.07
2023-03-18T05:53:04.475Z,10.09
2023-03-18T05:55:35.442Z,10.12
2023-03-18T05:58:06.048Z,10.14
2023-03-18T06:00:38.745Z,10.13
2023-03-18T06:03:09.159Z,10.13
2023-03-18T06:05:39.094Z,10.14
2023-03-18T06:08:08.866Z,10.17
2023-03-18T06:10:38.952Z,10.18
2023-03-18T06:13:09.628Z,10.17
2023-03-18T06:15:41.992Z,10.16
2023-03-18T06:18:11.749Z,10.16
2023-03-18T06:20:41.921Z,10.15
2023-03-18T06:23:11.659Z,10.16
2023-03-18T06:25:41.411Z,10.17
2023-03-18T06:28:11.146Z,10.18
2023-03-18T06:30:43.882Z,10.21
2023-03-18T06:33:15.341Z,10.24
2023-03-18T06:35:45.445Z,10.25
2023-03-18T06:38:21.886Z,10.28
2023-03-18T06:40:51.706Z,10.32
2023-03-18T06:43:21.546Z,10.35
2023-03-18T06:45:53.980Z,10.36
2023-03-18T06:48:23.873Z,10.37
2023-03-18T06:50:54.548Z,10.39
2023-03-18T06:53:25.431Z,10.42
2023-03-18T06:55:57.597Z,10.44
2023-03-18T06:58:27.528Z,10.45
2023-03-18T07:01:01.944Z,10.45
2023-03-18T07:03:32.910Z,10.46
2023-03-18T07:06:02.830Z,10.45
2023-03-18T07:08:32.625Z,10.48
2023-03-18T07:11:03.428Z,10.51
2023-03-18T07:13:34.718Z,10.52
2023-03-18T07:16:08.908Z,10.56
2023-03-18T07:18:38.791Z,10.58
2023-03-18T07:21:09.723Z,10.60
2023-03-18T07:23:39.481Z,10.61
2023-03-18T07:26:09.795Z,10.64
2023-03-18T07:28:39.561Z,10.66
2023-03-18T07:31:11.988Z,10.69
2023-03-18T07:33:41.808Z,10.73
2023-03-18T07:36:12.052Z,10.77
2023-03-18T07:38:42.296Z,10.79
2023-03-18T07:41:12.722Z,10.87
2023-03-18T07:43:43.720Z,11.00
2023-03-18T07:46:16.076Z,11.13
2023-03-18T07:48:46.715Z,11.27
2023-03-18T07:51:17.489Z,11.42
2023-03-18T07:53:47.759Z,11.50
2023-03-18T07:56:18.140Z,11.57
2023-03-18T07:58:52.092Z,11.61
2023-03-18T08:01:25.787Z,11.64
2023-03-18T08:03:55.618Z,11.66
2023-03-18T08:06:26.459Z,11.70
2023-03-18T08:08:56.304Z,11.73
2023-03-18T08:11:26.172Z,11.79
2023-03-18T08:13:56.127Z,11.86
2023-03-18T08:16:28.665Z,11.92
2023-03-18T08:18:58.921Z,11.97
2023-03-18T08:21:29.931Z,12.04
2023-03-18T08:23:59.682Z,12.07
2023-03-18T08:26:29.633Z,12.12
2023-03-18T08:28:59.667Z,12.18
2023-03-18T08:31:32.075Z,12.22
2023-03-18T08:34:02.555Z,12.25
2023-03-18T08:36:32.370Z,12.27
2023-03-18T08:39:02.186Z,12.28
2023-03-18T08:41:32.483Z,12.29
2023-03-18T08:44:02.312Z,12.32
2023-03-18T08:46:34.757Z,12.35
2023-03-18T08:49:04.941Z,12.39
2023-03-18T08:51:35.224Z,12.43
2023-03-18T08:54:05.031Z,12.45
2023-03-18T08:56:34.888Z,12.47
2023-03-18T08:59:07.784Z,12.49
2023-03-18T09:01:40.537Z,12.56
2023-03-18T09:04:10.377Z,12.61
2023-03-18T09:06:40.188Z,12.66
2023-03-18T09:09:11.785Z,12.71
2023-03-18T09:11:41.965Z,12.75
2023-03-18T09:14:11.705Z,12.78
2023-03-18T09:16:44.068Z,12.81
2023-03-18T09:19:13.908Z,12.84
2023-03-18T09:21:44.684Z,12.87
2023-03-18T09:24:14.445Z,12.90
2023-03-18T09:26:44.254Z,12.91
2023-03-18T09:29:14.066Z,12.93
2023-03-18T09:31:49.369Z,12.96
2023-03-18T09:34:19.482Z,12.99
2023-03-18T09:36:51.313Z,13.02
2023-03-18T09:39:21.360Z,13.03
2023-03-18T09:42:07.258Z,13.08
2023-03-18T09:44:39.141Z,13.10
2023-03-18T09:47:33.569Z,13.13
2023-03-18T09:50:18.558Z,13.15
2023-03-18T09:52:51.636Z,13.19
2023-03-18T09:55:27.424Z,13.21
2023-03-18T09:58:01.560Z,13.23
2023-03-18T10:00:34.246Z,13.25
2023-03-18T10:03:15.876Z,13.24
2023-03-18T10:05:53.336Z,13.23
2023-03-18T10:08:35.220Z,13.25
2023-03-18T10:11:10.957Z,13.28
2023-03-18T10:13:45.870Z,13.31
2023-03-18T10:16:23.712Z,13.37
2023-03-18T10:18:57.232Z,13.46
2023-03-18T10:21:37.794Z,13.53
2023-03-18T10:24:21.316Z,13.59
2023-03-18T10:26:56.057Z,13.69
2023-03-18T10:29:37.853Z,13.80
2023-03-18T10:32:15.286Z,13.90
2023-03-18T10:34:59.900Z,13.95
2023-03-18T10:37:40.831Z,14.04
2023-03-18T10:40:16.689Z,14.13
2023-03-18T10:42:48.040Z,14.23
2023-03-18T10:45:27.468Z,14.39
2023-03-18T10:48:05.975Z,14.50
2023-03-18T10:50:40.389Z,14.62
2023-03-18T10:53:19.265Z,14.71
2023-03-18T10:55:57.993Z,14.80
2023-03-18T10:58:30.982Z,14.90
2023-03-18T11:01:01.624Z,14.98
2023-03-18T11:03:36.017Z,15.07
2023-03-18T11:06:15.494Z,15.16
2023-03-18T11:08:49.271Z,15.24
2023-03-18T11:11:25.335Z,15.33
2023-03-18T11:13:57.325Z,15.40
2023-03-18T11:16:33.179Z,15.47
2023-03-18T11:19:09.359Z,15.53
2023-03-18T11:21:41.902Z,15.59
2023-03-18T11:24:36.411Z,15.65
2023-03-18T11:27:06.971Z,15.67
2023-03-18T11:29:38.362Z,15.71
2023-03-18T11:32:09.865Z,15.73
2023-03-18T11:34:39.663Z,15.75
2023-03-18T11:37:14.435Z,15.80
2023-03-18T11:39:44.699Z,15.81
2023-03-18T11:42:22.256Z,15.83
2023-03-18T11:44:57.657Z,15.86
2023-03-18T11:47:31.657Z,15.85
2023-03-18T11:50:02.224Z,15.84
2023-03-18T11:52:44.051Z,15.84
2023-03-18T11:55:28.962Z,15.86
2023-03-18T11:58:33.221Z,15.95
2023-03-18T12:01:10.389Z,16.07
2023-03-18T12:04:08.580Z,16.21
2023-03-18T12:06:47.548Z,16.31
2023-03-18T12:09:30.452Z,16.41
2023-03-18T12:12:09.448Z,16.50
2023-03-18T12:14:46.111Z,16.59
2023-03-18T12:17:27.624Z,16.66
2023-03-18T12:20:15.830Z,16.72
2023-03-18T12:23:04.537Z,16.75
2023-03-18T12:26:01.081Z,16.79
2023-03-18T12:28:50.903Z,16.82
2023-03-18T12:31:51.625Z,16.85
2023-03-18T12:34:34.370Z,16.91
2023-03-18T12:37:19.321Z,16.96
2023-03-18T12:40:24.847Z,17.00
2023-03-18T12:43:27.345Z,17.01
2023-03-18T12:46:04.739Z,17.03
2023-03-18T12:48:44.447Z,17.02
2023-03-18T12:51:18.353Z,17.02
2023-03-18T12:53:53.005Z,17.02
2023-03-18T12:56:26.636Z,17.03
2023-03-18T12:59:05.446Z,17.06
2023-03-18T13:01:45.465Z,17.03
2023-03-18T13:04:22.345Z,17.01
2023-03-18T13:07:02.202Z,16.98
2023-03-18T13:09:40.129Z,16.95
2023-03-18T13:12:14.657Z,16.94
2023-03-18T13:15:02.029Z,16.99
2023-03-18T13:17:38.841Z,17.03
2023-03-18T13:20:15.128Z,17.03
2023-03-18T13:23:16.126Z,17.03
2023-03-18T13:25:59.063Z,17.02
2023-03-18T13:28:51.373Z,17.05
2023-03-18T13:31:34.631Z,17.03
2023-03-18T13:34:26.782Z,17.02
2023-03-18T13:37:24.746Z,17.04
2023-03-18T13:40:20.490Z,17.04
2023-03-18T13:42:52.544Z,17.05
2023-03-18T13:45:29.486Z,17.07
2023-03-18T13:48:01.217Z,17.10
2023-03-18T13:50:39.853Z,17.14
2023-03-18T13:53:30.841Z,17.15
2023-03-18T13:56:07.171Z,17.14
2023-03-18T13:58:38.890Z,17.13
2023-03-18T14:01:33.629Z,17.13
2023-03-18T14:04:19.396Z,17.11
2023-03-18T14:06:55.957Z,17.12
2023-03-18T14:09:37.360Z,17.13
2023-03-18T14:12:24.967Z,17.12
2023-03-18T14:15:01.540Z,17.08
2023-03-18T14:17:41.563Z,17.09
2023-03-18T14:20:28.820Z,17.08
2023-03-18T14:23:28.753Z,17.07
2023-03-18T14:26:07.979Z,17.06
2023-03-18T14:28:56.368Z,17.05
2023-03-18T14:31:35.335Z,17.02
2023-03-18T14:34:27.957Z,17.02
2023-03-18T14:37:23.405Z,17.01
2023-03-18T14:39:57.812Z,17.00
2023-03-18T14:42:35.774Z,16.98
2023-03-18T14:45:15.718Z,16.96
2023-03-18T14:47:48.964Z,16.95
2023-03-18T14:50:27.669Z,16.96
2023-03-18T14:53:01.553Z,16.96
2023-03-18T14:55:37.057Z,16.96
2023-03-18T14:58:10.963Z,16.97
2023-03-18T15:00:40.839Z,16.99
2023-03-18T15:03:16.474Z,17.02
2023-03-18T15:05:47.046Z,17.01
2023-03-18T15:08:19.691Z,17.02
2023-03-18T15:11:19.328Z,17.02
2023-03-18T15:13:49.319Z,17.03
2023-03-18T15:16:22.178Z,17.05
2023-03-18T15:18:56.088Z,17.08
2023-03-18T15:21:29.759Z,17.09
2023-03-18T15:24:03.607Z,17.08
2023-03-18T15:26:40.699Z,17.08
2023-03-18T15:29:28.245Z,17.09
2023-03-18T15:32:10.736Z,17.09
2023-03-18T15:34:44.643Z,17.08
2023-03-18T15:37:29.030Z,17.08
2023-03-18T15:39:59.836Z,17.08
2023-03-18T15:42:33.314Z,17.08
2023-03-18T15:45:05.371Z,17.09
2023-03-18T15:47:35.954Z,17.09
2023-03-18T15:50:28.044Z,17.07
2023-03-18T15:53:20.417Z,17.06
2023-03-18T15:55:52.086Z,17.03
2023-03-18T15:58:29.814Z,17.04
2023-03-18T16:01:00.560Z,17.01
2023-03-18T16:03:32.484Z,17.02
2023-03-18T16:06:02.647Z,16.97
2023-03-18T16:08:33.062Z,16.95
2023-03-18T16:11:06.013Z,16.92
2023-03-18T16:13:40.887Z,16.91
2023-03-18T16:16:18.677Z,16.90
2023-03-18T16:18:49.062Z,16.88
2023-03-18T16:21:18.943Z,16.87
2023-03-18T16:23:49.496Z,16.84
2023-03-18T16:26:20.674Z,16.84
2023-03-18T16:28:53.103Z,16.81
2023-03-18T16:31:22.985Z,16.80
2023-03-18T16:33:53.847Z,16.78
2023-03-18T16:36:32.437Z,16.76
2023-03-18T16:39:02.200Z,16.73
2023-03-18T16:41:31.948Z,16.71
2023-03-18T16:44:06.618Z,16.66
2023-03-18T16:46:36.577Z,16.61
2023-03-18T16:49:06.612Z,16.59
2023-03-18T16:51:36.370Z,16.56
2023-03-18T16:54:19.862Z,16.53
2023-03-18T16:56:52.447Z,16.50
2023-03-18T16:59:27.974Z,16.48
2023-03-18T17:01:58.767Z,16.47
2023-03-18T17:04:31.244Z,16.44
2023-03-18T17:07:04.311Z,16.44
2023-03-18T17:09:34.935Z,16.41
2023-03-18T17:12:07.759Z,16.37
2023-03-18T17:14:43.213Z,16.35
2023-03-18T17:17:22.613Z,16.30
2023-03-18T17:19:52.360Z,16.20
2023-03-18T17:22:24.986Z,16.15
2023-03-18T17:24:54.783Z,16.06
2023-03-18T17:27:26.492Z,15.97
2023-03-18T17:29:58.900Z,15.89
2023-03-18T17:32:28.736Z,15.81
2023-03-18T17:34:58.525Z,15.71
2023-03-18T17:37:29.255Z,15.63
2023-03-18T17:40:02.059Z,15.53
2023-03-18T17:42:34.810Z,15.45
2023-03-18T17:45:14.630Z,15.38
2023-03-18T17:47:44.500Z,15.31
2023-03-18T17:50:17.415Z,15.25
2023-03-18T17:52:48.753Z,15.21
2023-03-18T17:55:22.645Z,15.18
2023-03-18T17:57:56.839Z,15.13
2023-03-18T18:00:29.891Z,15.06
2023-03-18T18:03:00.652Z,15.01
2023-03-18T18:05:31.311Z,14.95
2023-03-18T18:08:01.275Z,14.89
2023-03-18T18:10:31.497Z,14.84
2023-03-18T18:13:02.839Z,14.79
2023-03-18T18:15:35.621Z,14.74
2023-03-18T18:18:06.405Z,14.70
2023-03-18T18:20:36.788Z,14.65
2023-03-18T18:23:08.177Z,14.60
2023-03-18T18:25:37.953Z,14.52
2023-03-18T18:28:14.631Z,14.43
2023-03-18T18:30:47.127Z,14.34
2023-03-18T18:33:19.423Z,14.25
2023-03-18T18:35:49.188Z,14.18
2023-03-18T18:38:19.003Z,14.11
2023-03-18T18:40:49.722Z,14.05
2023-03-18T18:43:19.596Z,14.02
2023-03-18T18:45:54.451Z,13.97
2023-03-18T18:48:30.187Z,13.91
2023-03-18T18:51:00.409Z,13.83
2023-03-18T18:53:32.258Z,13.79
2023-03-18T18:56:05.789Z,13.75
2023-03-18T18:58:36.671Z,13.70
2023-03-18T19:01:11.566Z,13.65
2023-03-18T19:03:42.086Z,13.58
2023-03-18T19:06:26.717Z,13.53
2023-03-18T19:08:57.795Z,13.46
2023-03-18T19:11:28.486Z,13.40
2023-03-18T19:14:08.443Z,13.37
2023-03-18T19:16:40.799Z,13.32
2023-03-18T19:19:13.989Z,13.28
2023-03-18T19:21:43.883Z,13.24
2023-03-18T19:24:28.494Z,13.20
2023-03-18T19:26:59.617Z,13.18
2023-03-18T19:29:30.039Z,13.16
2023-03-18T19:32:03.069Z,13.14
2023-03-18T19:34:35.439Z,13.13
2023-03-18T19:37:08.012Z,13.12
2023-03-18T19:39:38.244Z,13.09
2023-03-18T19:42:08.062Z,13.06
2023-03-18T19:44:42.800Z,13.03
2023-03-18T19:47:20.570Z,12.98
2023-03-18T19:49:50.709Z,12.93
2023-03-18T19:52:22.701Z,12.89
2023-03-18T19:54:53.552Z,12.85
2023-03-18T19:57:27.542Z,12.81
2023-03-18T20:00:00.910Z,12.78
2023-03-18T20:02:34.960Z,12.73
2023-03-18T20:05:17.191Z,12.69
2023-03-18T20:07:46.941Z,12.63
2023-03-18T20:10:17.171Z,12.58
2023-03-18T20:12:48.847Z,12.53
2023-03-18T20:15:20.588Z,12.50
2023-03-18T20:17:53.875Z,12.47
2023-03-18T20:20:25.526Z,12.39
2023-03-18T20:22:59.394Z,12.30
2023-03-18T20:25:36.098Z,12.23
2023-03-18T20:28:06.201Z,12.17
2023-03-18T20:30:37.848Z,12.10
2023-03-18T20:33:10.899Z,12.02
2023-03-18T20:35:43.112Z,11.96
2023-03-18T20:38:18.501Z,11.94
2023-03-18T20:40:49.677Z,11.92
2023-03-18T20:43:20.820Z,11.89
2023-03-18T20:45:51.595Z,11.86
2023-03-18T20:48:24.520Z,11.85
2023-03-18T20:50:55.437Z,11.84
2023-03-18T20:53:28.707Z,11.82
2023-03-18T20:55:58.883Z,11.81
2023-03-18T20:58:32.871Z,11.79
2023-03-18T21:01:03.837Z,11.76
2023-03-18T21:03:37.988Z,11.74
2023-03-18T21:06:10.015Z,11.70
2023-03-18T21:08:40.016Z,11.67
2023-03-18T21:11:19.627Z,11.64
2023-03-18T21:13:49.366Z,11.60
2023-03-18T21:16:21.224Z,11.57
2023-03-18T21:18:53.705Z,11.56
2023-03-18T21:21:26.800Z,11.54
2023-03-18T21:23:57.012Z,11.53
2023-03-18T21:26:28.551Z,11.50
2023-03-18T21:28:58.350Z,11.47
2023-03-18T21:31:31.405Z,11.45
2023-03-18T21:34:04.194Z,11.42
2023-03-18T21:36:34.085Z,11.41
2023-03-18T21:39:03.847Z,11.39
2023-03-18T21:41:34.099Z,11.36
2023-03-18T21:44:03.941Z,11.33
2023-03-18T21:46:33.730Z,11.29
2023-03-18T21:49:06.216Z,11.25
2023-03-18T21:51:39.508Z,11.22
2023-03-18T21:54:17.482Z,11.21
2023-03-18T21:56:47.258Z,11.21
2023-03-18T21:59:20.155Z,11.20
2023-03-18T22:01:49.930Z,11.19
2023-03-18T22:04:22.459Z,11.20
2023-03-18T22:06:52.583Z,11.20
2023-03-18T22:09:24.281Z,11.22
2023-03-18T22:11:54.060Z,11.21
2023-03-18T22:14:23.832Z,11.21
2023-03-18T22:16:53.550Z,11.21
2023-03-18T22:19:25.932Z,11.23
2023-03-18T22:21:55.708Z,11.25
2023-03-18T22:24:25.477Z,11.26
2023-03-18T22:26:55.205Z,11.29
2023-03-18T22:29:25.210Z,11.30
2023-03-18T22:31:54.996Z,11.32
2023-03-18T22:34:28.348Z,11.34
2023-03-18T22:36:58.092Z,11.39
2023-03-18T22:39:28.238Z,11.42
2023-03-18T22:41:58.022Z,11.43
2023-03-18T22:44:28.209Z,11.44
2023-03-18T22:46:58.001Z,11.47
2023-03-18T22:49:30.422Z,11.50
2023-03-18T22:52:00.272Z,11.50
2023-03-18T22:54:33.786Z,11.54
2023-03-18T22:57:04.339Z,11.57
2023-03-18T22:59:34.116Z,11.60
2023-03-18T23:02:03.998Z,11.64
2023-03-18T23:04:36.476Z,11.68
2023-03-18T23:07:06.445Z,11.71
2023-03-18T23:09:44.238Z,11.75
2023-03-18T23:12:20.600Z,11.78
2023-03-18T23:14:51.117Z,11.80
2023-03-18T23:17:22.474Z,11.83
2023-03-18T23:19:55.544Z,11.86
2023-03-18T23:22:28.650Z,11.88
2023-03-18T23:24:59.266Z,11.91
2023-03-18T23:27:30.123Z,11.90
2023-03-18T23:29:59.871Z,11.93
2023-03-18T23:32:31.160Z,11.96
2023-03-18T23:35:03.732Z,11.98
2023-03-18T23:37:33.476Z,12.00
2023-03-18T23:40:03.446Z,12.03
2023-03-18T23:42:33.198Z,12.04
2023-03-18T23:45:04.173Z,12.07
2023-03-18T23:47:33.946Z,12.08
2023-03-18T23:50:06.810Z,12.10
2023-03-18T23:52:37.016Z,12.11
2023-03-18T23:55:18.466Z,12.12
2023-03-18T23:57:52.268Z,12.13
